createdAt,value
2023-08-12T00:00:25.535Z,64.000000
2023-08-12T00:05:17.447Z,65.000000
2023-08-12T00:10:17.336Z,70.000000
2023-08-12T00:15:19.375Z,70.000000
2023-08-12T00:20:25.589Z,68.000000
2023-08-12T00:25:25.564Z,68.000000
2023-08-12T00:30:19.431Z,69.000000
2023-08-12T00:35:19.326Z,69.000000
2023-08-12T00:40:19.286Z,70.000000
2023-08-12T00:45:25.621Z,70.000000
2023-08-12T00:50:25.610Z,70.000000
2023-08-12T00:55:25.641Z,70.000000
2023-08-12T01:00:17.430Z,70.000000
2023-08-12T01:05:19.382Z,70.000000
2023-08-12T01:10:19.364Z,70.000000
2023-08-12T01:15:19.367Z,71.000000
2023-08-12T01:20:19.382Z,71.000000
2023-08-12T01:25:25.747Z,72.000000
2023-08-12T01:30:19.401Z,71.000000
2023-08-12T01:35:25.668Z,71.000000
2023-08-12T01:40:19.417Z,71.000000
2023-08-12T01:45:25.653Z,72.000000
2023-08-12T01:50:17.480Z,73.000000
2023-08-12T01:55:17.506Z,74.000000
2023-08-12T02:00:19.465Z,74.000000
2023-08-12T02:05:25.697Z,74.000000
2023-08-12T02:10:19.503Z,75.000000
2023-08-12T02:15:25.684Z,75.000000
2023-08-12T02:20:25.647Z,75.000000
2023-08-12T02:25:25.846Z,75.000000
2023-08-12T02:30:19.510Z,76.000000
2023-08-12T02:35:25.711Z,76.000000
2023-08-12T02:40:23.674Z,77.000000
2023-08-12T02:45:17.464Z,78.000000
2023-08-12T02:50:17.509Z,79.000000
2023-08-12T02:55:23.789Z,79.000000
2023-08-12T03:00:23.765Z,81.000000
2023-08-12T03:05:17.514Z,82.000000
2023-08-12T03:10:23.738Z,82.000000
2023-08-12T03:15:23.736Z,83.000000
2023-08-12T03:20:23.948Z,84.000000
2023-08-12T03:25:15.620Z,84.000000
2023-08-12T03:30:23.713Z,82.000000
2023-08-12T03:35:20.042Z,84.000000
2023-08-12T03:40:17.527Z,86.000000
2023-08-12T03:45:23.863Z,86.000000
2023-08-12T03:50:17.522Z,87.000000
2023-08-12T03:55:23.822Z,85.000000
2023-08-12T04:00:18.930Z,86.000000
2023-08-12T04:05:25.049Z,86.000000
2023-08-12T04:10:18.805Z,87.000000
2023-08-12T04:15:18.840Z,87.000000
2023-08-12T04:20:18.901Z,87.000000
2023-08-12T04:25:25.081Z,88.000000
2023-08-12T04:30:18.871Z,88.000000
2023-08-12T04:35:25.174Z,87.000000
2023-08-12T04:40:19.221Z,88.000000
2023-08-12T04:45:16.951Z,88.000000
2023-08-12T04:50:16.776Z,89.000000
2023-08-12T04:55:18.849Z,88.000000
2023-08-12T05:00:19.000Z,88.000000
2023-08-12T05:05:18.929Z,87.000000
2023-08-12T05:10:25.246Z,87.000000
2023-08-12T05:15:18.884Z,87.000000
2023-08-12T05:20:18.902Z,88.000000
2023-08-12T05:25:25.227Z,88.000000
2023-08-12T05:30:25.276Z,89.000000
2023-08-12T05:35:18.935Z,89.000000
2023-08-12T05:40:16.989Z,89.000000
2023-08-12T05:45:18.990Z,89.000000
2023-08-12T05:50:18.972Z,88.000000
2023-08-12T05:55:25.143Z,88.000000
2023-08-12T06:00:25.234Z,89.000000
2023-08-12T06:05:25.162Z,89.000000
2023-08-12T06:10:25.160Z,88.000000
2023-08-12T06:15:19.069Z,88.000000
2023-08-12T06:20:25.357Z,88.000000
2023-08-12T06:25:25.169Z,88.000000
2023-08-12T06:30:17.097Z,89.000000
2023-08-12T06:35:17.054Z,89.000000
2023-08-12T06:40:18.993Z,89.000000
2023-08-12T06:45:25.255Z,90.000000
2023-08-12T06:50:25.258Z,90.000000
2023-08-12T06:55:18.990Z,90.000000
2023-08-12T07:00:19.106Z,91.000000
2023-08-12T07:05:19.040Z,91.000000
2023-08-12T07:10:20.420Z,93.000000
2023-08-12T07:15:25.453Z,93.000000
2023-08-12T07:20:25.586Z,93.000000
2023-08-12T07:25:17.168Z,92.000000
2023-08-12T07:30:17.095Z,92.000000
2023-08-12T07:35:25.455Z,92.000000
2023-08-12T07:40:19.142Z,92.000000
2023-08-12T07:45:19.136Z,92.000000
2023-08-12T07:50:25.356Z,93.000000
2023-08-12T07:55:27.364Z,93.000000
2023-08-12T08:00:25.365Z,93.000000
2023-08-12T08:05:19.193Z,93.000000
2023-08-12T08:10:19.037Z,93.000000
2023-08-12T08:15:25.343Z,93.000000
2023-08-12T08:20:17.216Z,93.000000
2023-08-12T08:25:25.458Z,93.000000
2023-08-12T08:30:19.146Z,93.000000
2023-08-12T08:35:25.512Z,93.000000
2023-08-12T08:40:25.349Z,94.000000
2023-08-12T08:45:25.328Z,94.000000
2023-08-12T08:50:25.334Z,94.000000
2023-08-12T08:55:21.072Z,94.000000
2023-08-12T09:00:19.206Z,94.000000
2023-08-12T09:05:19.289Z,94.000000
2023-08-12T09:10:17.223Z,94.000000
2023-08-12T09:15:17.342Z,94.000000
2023-08-12T09:20:25.604Z,94.000000
2023-08-12T09:25:25.438Z,95.000000
2023-08-12T09:30:19.212Z,95.000000
2023-08-12T09:35:19.256Z,95.000000
2023-08-12T09:40:25.594Z,95.000000
2023-08-12T09:45:25.454Z,95.000000
2023-08-12T09:50:25.378Z,95.000000
2023-08-12T09:55:19.290Z,95.000000
2023-08-12T10:00:19.308Z,95.000000
2023-08-12T10:05:17.381Z,94.000000
2023-08-12T10:10:17.206Z,94.000000
2023-08-12T10:15:19.394Z,94.000000
2023-08-12T10:20:19.332Z,95.000000
2023-08-12T10:25:19.348Z,95.000000
2023-08-12T10:30:25.611Z,95.000000
2023-08-12T10:35:25.595Z,95.000000
2023-08-12T10:40:25.583Z,95.000000
2023-08-12T10:45:25.607Z,95.000000
2023-08-12T10:50:25.538Z,95.000000
2023-08-12T10:55:25.829Z,95.000000
2023-08-12T11:00:17.372Z,95.000000
2023-08-12T11:05:25.656Z,95.000000
2023-08-12T11:10:25.632Z,95.000000
2023-08-12T11:15:25.562Z,95.000000
2023-08-12T11:20:19.388Z,94.000000
2023-08-12T11:25:25.739Z,92.000000
2023-08-12T11:30:25.644Z,90.000000
2023-08-12T11:35:19.404Z,87.000000
2023-08-12T11:40:25.703Z,86.000000
2023-08-12T11:45:25.610Z,82.000000
2023-08-12T11:50:17.449Z,84.000000
2023-08-12T11:55:17.466Z,82.000000
2023-08-12T12:00:25.735Z,80.000000
2023-08-12T12:05:25.734Z,77.000000
2023-08-12T12:10:19.462Z,76.000000
2023-08-12T12:16:02.909Z,77.000000
2023-08-12T12:20:25.720Z,74.000000
2023-08-12T12:25:19.614Z,73.000000
2023-08-12T12:30:15.598Z,73.000000
2023-08-12T12:35:25.731Z,75.000000
2023-08-12T12:40:24.779Z,76.000000
2023-08-12T12:45:18.531Z,76.000000
2023-08-12T12:50:24.747Z,76.000000
2023-08-12T12:55:24.732Z,77.000000
2023-08-12T13:00:24.715Z,77.000000
2023-08-12T13:05:16.553Z,76.000000
2023-08-12T13:10:16.797Z,76.000000
2023-08-12T13:15:24.748Z,75.000000
2023-08-12T13:20:18.596Z,76.000000
2023-08-12T13:25:24.830Z,75.000000
2023-08-12T13:30:24.876Z,72.000000
2023-08-12T13:35:18.544Z,67.000000
2023-08-12T13:40:24.925Z,67.000000
2023-08-12T13:45:25.058Z,61.000000
2023-08-12T13:50:24.811Z,62.000000
2023-08-12T13:55:16.736Z,58.000000
2023-08-12T14:00:16.593Z,60.000000
2023-08-12T14:05:18.570Z,57.000000
2023-08-12T14:10:24.821Z,57.000000
2023-08-12T14:15:18.585Z,57.000000
2023-08-12T14:20:18.560Z,59.000000
2023-08-12T14:25:24.898Z,56.000000
2023-08-12T14:30:18.717Z,58.000000
2023-08-12T14:35:25.013Z,58.000000
2023-08-12T14:40:18.687Z,57.000000
2023-08-12T14:45:18.566Z,56.000000
2023-08-12T14:50:16.763Z,55.000000
2023-08-12T14:55:16.629Z,53.000000
2023-08-12T15:00:25.020Z,55.000000
2023-08-12T15:05:18.663Z,55.000000
2023-08-12T15:10:24.926Z,53.000000
2023-08-12T15:15:18.669Z,54.000000
2023-08-12T15:20:24.955Z,53.000000
2023-08-12T15:25:18.708Z,53.000000
2023-08-12T15:30:25.050Z,54.000000
2023-08-12T15:35:24.942Z,54.000000
2023-08-12T15:40:16.754Z,53.000000
2023-08-12T15:45:16.803Z,55.000000
2023-08-12T15:50:18.712Z,54.000000
2023-08-12T15:55:18.702Z,53.000000
2023-08-12T16:00:24.957Z,52.000000
2023-08-12T16:05:24.917Z,53.000000
2023-08-12T16:10:18.901Z,51.000000
2023-08-12T16:15:18.786Z,50.000000
2023-08-12T16:20:25.032Z,51.000000
2023-08-12T16:25:18.710Z,51.000000
2023-08-12T16:30:25.128Z,49.000000
2023-08-12T16:35:16.863Z,49.000000
2023-08-12T16:40:16.864Z,48.000000
2023-08-12T16:45:18.799Z,49.000000
2023-08-12T16:50:24.955Z,48.000000
2023-08-12T16:55:25.050Z,48.000000
2023-08-12T17:00:18.786Z,52.000000
2023-08-12T17:05:18.815Z,53.000000
2023-08-12T17:10:18.903Z,55.000000
2023-08-12T17:15:18.852Z,54.000000
2023-08-12T17:20:25.073Z,55.000000
2023-08-12T17:25:18.870Z,51.000000
2023-08-12T17:30:16.919Z,52.000000
2023-08-12T17:35:16.927Z,49.000000
2023-08-12T17:40:18.923Z,50.000000
2023-08-12T17:45:18.946Z,48.000000
2023-08-12T17:50:19.004Z,48.000000
2023-08-12T17:55:18.905Z,48.000000
2023-08-12T18:00:25.176Z,51.000000
2023-08-12T18:05:25.101Z,49.000000
2023-08-12T18:10:25.239Z,49.000000
2023-08-12T18:15:18.904Z,52.000000
2023-08-12T18:20:16.980Z,51.000000
2023-08-12T18:25:17.120Z,53.000000
2023-08-12T18:30:25.181Z,53.000000
2023-08-12T18:35:25.142Z,52.000000
2023-08-12T18:40:25.240Z,54.000000
2023-08-12T18:45:25.396Z,53.000000
2023-08-12T18:50:25.202Z,55.000000
2023-08-12T18:55:19.021Z,55.000000
2023-08-12T19:00:19.010Z,53.000000
2023-08-12T19:05:25.154Z,55.000000
2023-08-12T19:10:25.249Z,56.000000
2023-08-12T19:15:17.098Z,55.000000
2023-08-12T19:20:17.151Z,56.000000
2023-08-12T19:25:19.046Z,56.000000
2023-08-12T19:30:25.306Z,56.000000
2023-08-12T19:35:25.219Z,57.000000
2023-08-12T19:40:25.275Z,58.000000
2023-08-12T19:45:19.107Z,57.000000
2023-08-12T19:50:19.174Z,59.000000
2023-08-12T19:55:25.346Z,56.000000
2023-08-12T20:00:25.373Z,58.000000
2023-08-12T20:05:25.321Z,60.000000
2023-08-12T20:10:17.212Z,61.000000
2023-08-12T20:15:25.382Z,61.000000
2023-08-12T20:20:25.485Z,62.000000
2023-08-12T20:25:25.422Z,62.000000
2023-08-12T20:30:25.398Z,64.000000
2023-08-12T20:35:25.628Z,63.000000
2023-08-12T20:40:25.402Z,65.000000
2023-08-12T20:45:19.195Z,64.000000
2023-08-12T20:50:19.147Z,65.000000
2023-08-12T20:55:25.417Z,65.000000
2023-08-12T21:00:17.237Z,65.000000
2023-08-12T21:05:17.186Z,66.000000
2023-08-12T21:10:25.544Z,67.000000
2023-08-12T21:15:19.179Z,67.000000
2023-08-12T21:20:25.464Z,67.000000
2023-08-12T21:25:25.933Z,68.000000
2023-08-12T21:30:25.458Z,67.000000
2023-08-12T21:35:19.172Z,67.000000
2023-08-12T21:40:25.517Z,68.000000
2023-08-12T21:45:19.169Z,68.000000
2023-08-12T21:50:25.542Z,67.000000
2023-08-12T21:55:17.308Z,68.000000
2023-08-12T22:00:17.372Z,68.000000
2023-08-12T22:05:19.342Z,67.000000
2023-08-12T22:10:19.482Z,67.000000
2023-08-12T22:15:25.613Z,67.000000
2023-08-12T22:20:19.250Z,68.000000
2023-08-12T22:25:25.533Z,67.000000
2023-08-12T22:30:25.631Z,69.000000
2023-08-12T22:35:19.279Z,69.000000
2023-08-12T22:40:25.622Z,69.000000
2023-08-12T22:45:17.276Z,69.000000
2023-08-12T22:50:17.336Z,70.000000
2023-08-12T22:55:19.344Z,71.000000
2023-08-12T23:00:25.685Z,71.000000
2023-08-12T23:05:25.581Z,73.000000
2023-08-12T23:10:25.573Z,74.000000
2023-08-12T23:15:25.621Z,75.000000
2023-08-12T23:20:19.334Z,75.000000
2023-08-12T23:25:25.609Z,76.000000
2023-08-12T23:30:25.630Z,77.000000
2023-08-12T23:35:19.332Z,77.000000
2023-08-12T23:40:17.497Z,78.000000
2023-08-12T23:45:17.390Z,78.000000
2023-08-12T23:50:19.358Z,78.000000
2023-08-12T23:55:19.439Z,79.000000
